Time;durP1;ratioP1;P1;durP2;ratioP2;P2;SDS_P1;SDS_P2;PMS_P1;PMS_P2;Temp;Humidity;BMP_temperature;BMP_pressure;BME280_temperature;BME280_humidity;BME280_pressure;Samples;Min_cycle;Max_cycle;Signal;HPM_P1;HPM_P2
2022/04/25 00:00:09;;;;;;;14.00;7.10;;;8.90;99.90;;;;;;5011407;28;20488;-75
2022/04/25 00:02:34;;;;;;;13.60;7.18;;;9.00;99.90;;;;;;5011254;28;20065;-75
2022/04/25 00:04:59;;;;;;;16.58;7.22;;;9.00;99.90;;;;;;5010446;28;20557;-76
2022/04/25 00:07:25;;;;;;;19.80;7.28;;;8.90;99.90;;;;;;5011168;28;20025;-76
2022/04/25 00:09:50;;;;;;;13.52;7.53;;;8.80;99.90;;;;;;5011080;28;20026;-76
2022/04/25 00:12:16;;;;;;;13.70;7.43;;;8.80;99.90;;;;;;5010601;28;20084;-76
2022/04/25 00:14:42;;;;;;;17.50;7.13;;;8.80;99.90;;;;;;5011773;28;20034;-76
2022/04/25 00:17:08;;;;;;;16.42;8.35;;;8.80;99.90;;;;;;5010498;28;20426;-76
2022/04/25 00:19:35;;;;;;;14.10;6.75;;;8.80;99.90;;;;;;5011134;28;20057;-76
2022/04/25 00:22:01;;;;;;;14.35;7.68;;;8.80;99.90;;;;;;5010875;28;20017;-76
2022/04/25 00:24:26;;;;;;;15.45;7.65;;;8.80;99.90;;;;;;5010888;28;20072;-76
2022/04/25 00:26:52;;;;;;;16.10;8.15;;;8.80;99.90;;;;;;5011463;28;20033;-75
2022/04/25 00:29:17;;;;;;;13.80;7.32;;;8.80;99.90;;;;;;5009323;28;20022;-76
2022/04/25 00:31:43;;;;;;;18.83;7.85;;;8.80;99.90;;;;;;5010335;28;20113;-76
2022/04/25 00:34:08;;;;;;;14.70;7.70;;;8.80;99.90;;;;;;5010576;28;20030;-76
2022/04/25 00:36:34;;;;;;;14.00;7.75;;;8.80;99.90;;;;;;5010776;28;20034;-75
2022/04/25 00:38:59;;;;;;;17.38;7.55;;;8.90;99.90;;;;;;5012543;28;20053;-76
2022/04/25 00:41:25;;;;;;;12.60;7.22;;;8.90;99.90;;;;;;5013910;28;20076;-77
2022/04/25 00:43:57;;;;;;;18.98;8.02;;;8.90;99.90;;;;;;5009380;28;20026;-75
2022/04/25 00:46:25;;;;;;;15.73;7.72;;;9.00;99.90;;;;;;5010722;28;20025;-76
2022/04/25 00:48:51;;;;;;;14.65;7.60;;;8.90;99.90;;;;;;5009808;28;20034;-76
2022/04/25 00:51:19;;;;;;;13.57;7.80;;;8.90;99.90;;;;;;5020291;28;20026;-76
2022/04/25 00:53:46;;;;;;;15.35;8.43;;;9.00;99.90;;;;;;5012203;28;20156;-75
2022/04/25 00:56:15;;;;;;;17.30;9.02;;;9.00;99.90;;;;;;5009825;28;20045;-76
2022/04/25 00:58:43;;;;;;;14.23;7.95;;;8.90;99.90;;;;;;5009450;28;20037;-75
2022/04/25 01:01:09;;;;;;;15.30;8.18;;;8.90;99.90;;;;;;5009240;28;20044;-75
2022/04/25 01:03:34;;;;;;;14.70;8.20;;;8.80;99.90;;;;;;5010584;28;20037;-76
2022/04/25 01:06:00;;;;;;;20.42;8.73;;;8.60;99.90;;;;;;5010218;28;20508;-77
2022/04/25 01:08:26;;;;;;;15.95;9.18;;;8.60;99.90;;;;;;5010295;28;20030;-75
2022/04/25 01:10:52;;;;;;;19.23;8.98;;;8.40;99.90;;;;;;5008831;28;20397;-76
2022/04/25 01:13:17;;;;;;;15.38;8.00;;;8.40;99.90;;;;;;5008765;28;20026;-76
2022/04/25 01:15:43;;;;;;;14.82;8.50;;;8.50;99.90;;;;;;5010306;28;20034;-76
2022/04/25 01:18:08;;;;;;;17.10;9.57;;;8.60;99.90;;;;;;5009973;28;20034;-76
2022/04/25 01:20:34;;;;;;;17.58;9.73;;;8.50;99.90;;;;;;5005538;28;20493;-75
2022/04/25 01:28:34;;;;;;;18.27;9.98;;;8.60;99.90;;;;;;5000123;28;20369;-76
2022/04/25 01:31:00;;;;;;;18.23;10.60;;;8.30;99.90;;;;;;5006047;28;20029;-75
2022/04/25 01:33:25;;;;;;;19.95;10.32;;;8.40;99.90;;;;;;5010035;28;20398;-76
2022/04/25 01:35:51;;;;;;;18.13;10.45;;;8.30;99.90;;;;;;5009276;28;20026;-75
2022/04/25 01:38:16;;;;;;;16.75;9.68;;;8.40;99.90;;;;;;5016993;28;20042;-76
2022/04/25 01:40:42;;;;;;;17.05;10.07;;;8.40;99.90;;;;;;5008699;28;20117;-75
2022/04/25 01:43:07;;;;;;;16.15;9.63;;;8.40;99.90;;;;;;5009391;28;20037;-75
2022/04/25 01:45:33;;;;;;;14.07;9.82;;;8.40;99.90;;;;;;5020698;28;20075;-76
2022/04/25 01:47:58;;;;;;;17.08;10.10;;;8.40;99.90;;;;;;5008905;28;20481;-75
2022/04/25 01:50:24;;;;;;;22.27;10.50;;;8.30;99.90;;;;;;5012243;28;20022;-75
2022/04/25 01:52:49;;;;;;;19.40;9.95;;;8.30;99.90;;;;;;5009182;28;20296;-75
2022/04/25 01:55:15;;;;;;;16.20;9.57;;;8.30;99.90;;;;;;5006763;28;20042;-75
2022/04/25 01:57:40;;;;;;;19.60;10.18;;;8.20;99.90;;;;;;5009257;28;20041;-75
2022/04/25 02:00:06;;;;;;;19.85;10.45;;;8.20;99.90;;;;;;5009433;28;20034;-76
2022/04/25 02:02:32;;;;;;;21.55;10.93;;;8.10;99.90;;;;;;5007814;28;20068;-76
2022/04/25 02:04:57;;;;;;;20.60;10.48;;;8.10;99.90;;;;;;5009373;28;20454;-76
2022/04/25 02:07:23;;;;;;;20.38;11.00;;;8.10;99.90;;;;;;5009620;28;20026;-75
2022/04/25 02:09:49;;;;;;;18.73;10.65;;;8.10;99.90;;;;;;5009245;28;20025;-76
2022/04/25 02:12:15;;;;;;;16.48;10.25;;;8.20;99.90;;;;;;5008014;28;20033;-76
2022/04/25 02:14:42;;;;;;;23.50;10.90;;;8.20;99.90;;;;;;5008830;28;20037;-75
2022/04/25 02:17:08;;;;;;;20.98;10.75;;;8.20;99.90;;;;;;5009508;28;20084;-76
2022/04/25 02:19:38;;;;;;;20.38;11.02;;;8.20;99.90;;;;;;5008229;28;20409;-75
2022/04/25 02:22:04;;;;;;;21.17;11.05;;;8.20;99.90;;;;;;5008174;28;20362;-75
2022/04/25 02:24:29;;;;;;;19.77;10.65;;;8.00;99.90;;;;;;5011268;28;20764;-75
2022/04/25 02:26:55;;;;;;;21.08;11.13;;;8.10;99.90;;;;;;5008385;28;20069;-75
2022/04/25 02:29:22;;;;;;;19.45;11.23;;;8.10;99.90;;;;;;5025346;28;20108;-75
2022/04/25 02:31:47;;;;;;;21.63;12.05;;;8.00;99.90;;;;;;5012630;28;20022;-76
2022/04/25 02:34:13;;;;;;;21.88;11.57;;;8.00;99.90;;;;;;4998436;28;20030;-75
2022/04/25 02:36:39;;;;;;;17.98;10.32;;;7.90;99.90;;;;;;5007974;28;20408;-76
2022/04/25 02:39:04;;;;;;;19.85;11.13;;;8.00;99.90;;;;;;5009221;28;20033;-75
2022/04/25 02:41:30;;;;;;;16.27;9.95;;;8.00;99.90;;;;;;5009021;28;20033;-76
2022/04/25 02:43:55;;;;;;;18.67;10.23;;;8.00;99.90;;;;;;5009222;28;20503;-76
2022/04/25 02:46:21;;;;;;;22.45;10.75;;;8.00;99.90;;;;;;5011581;28;20062;-75
2022/04/25 02:48:47;;;;;;;21.17;11.02;;;8.00;99.90;;;;;;5011266;28;20036;-76
2022/04/25 02:51:14;;;;;;;18.83;10.93;;;7.90;99.90;;;;;;5008755;28;20022;-76
2022/04/25 02:53:40;;;;;;;18.05;10.48;;;8.00;99.90;;;;;;5012342;28;20404;-75
2022/04/25 02:56:06;;;;;;;18.95;10.85;;;8.00;99.90;;;;;;5011786;28;20034;-76
2022/04/25 02:58:33;;;;;;;19.73;10.65;;;8.00;99.90;;;;;;5015098;28;20361;-76
2022/04/25 03:00:59;;;;;;;21.63;10.73;;;8.00;99.90;;;;;;5024220;28;20033;-76
2022/04/25 03:03:25;;;;;;;20.50;10.65;;;7.90;99.90;;;;;;5016459;28;20056;-76
2022/04/25 03:05:52;;;;;;;17.70;10.27;;;7.90;99.90;;;;;;5015432;28;20444;-76
2022/04/25 03:08:20;;;;;;;17.10;9.98;;;7.90;99.90;;;;;;5011931;28;20063;-75
2022/04/25 03:10:47;;;;;;;17.83;10.32;;;7.80;99.90;;;;;;5012125;28;20040;-75
2022/04/25 03:13:14;;;;;;;22.13;11.10;;;7.80;99.90;;;;;;5012207;28;20030;-75
2022/04/25 03:15:40;;;;;;;17.17;10.57;;;7.80;99.90;;;;;;5012028;28;20791;-75
2022/04/25 03:18:07;;;;;;;19.20;10.48;;;7.80;99.90;;;;;;5000832;28;20080;-75
2022/04/25 03:20:33;;;;;;;19.48;10.30;;;7.70;99.90;;;;;;5012753;28;20504;-75
2022/04/25 03:22:59;;;;;;;18.35;10.63;;;7.70;99.90;;;;;;5012150;28;20037;-75
2022/04/25 03:25:24;;;;;;;20.92;10.95;;;7.70;99.90;;;;;;5013682;28;20034;-75
2022/04/25 03:27:50;;;;;;;17.67;10.20;;;7.70;99.90;;;;;;5018882;28;20400;-75
2022/04/25 03:30:16;;;;;;;19.30;10.60;;;7.60;99.90;;;;;;5022622;28;20059;-75
2022/04/25 03:32:46;;;;;;;18.63;10.85;;;7.60;99.90;;;;;;5011909;28;20037;-75
2022/04/25 03:35:17;;;;;;;17.73;10.63;;;7.60;99.90;;;;;;5009787;28;20030;-74
2022/04/25 03:37:43;;;;;;;18.55;10.65;;;7.60;99.90;;;;;;5011093;28;20687;-75
2022/04/25 03:40:09;;;;;;;21.10;11.45;;;7.60;99.90;;;;;;5012236;28;20049;-75
2022/04/25 03:42:45;;;;;;;19.40;10.82;;;7.60;99.90;;;;;;5011507;28;20030;-75
2022/04/25 03:45:11;;;;;;;20.45;11.38;;;7.70;99.90;;;;;;5010027;28;20061;-75
2022/04/25 03:47:38;;;;;;;20.38;11.18;;;7.70;99.90;;;;;;5012210;28;20064;-75
2022/04/25 03:50:08;;;;;;;19.88;11.68;;;7.70;99.90;;;;;;5011563;28;20028;-76
2022/04/25 03:52:38;;;;;;;17.48;10.57;;;7.60;99.90;;;;;;5011401;28;20036;-76
2022/04/25 03:57:53;;;;;;;20.17;11.07;;;7.80;99.90;;;;;;5017009;28;20112;-76
2022/04/25 04:00:20;;;;;;;18.02;10.60;;;7.80;99.90;;;;;;5011299;28;20124;-76
2022/04/25 04:02:45;;;;;;;19.65;10.60;;;7.80;99.90;;;;;;5010921;28;20104;-75
2022/04/25 04:05:11;;;;;;;18.65;11.23;;;7.80;99.90;;;;;;5010036;28;20176;-75
2022/04/25 04:07:38;;;;;;;21.23;11.15;;;7.80;99.90;;;;;;5011061;28;20504;-75
2022/04/25 04:10:04;;;;;;;17.00;10.98;;;7.90;99.90;;;;;;5011481;28;20164;-76
2022/04/25 04:12:39;;;;;;;21.88;10.70;;;7.90;99.90;;;;;;5011342;28;20045;-75
2022/04/25 04:15:06;;;;;;;18.38;9.75;;;8.00;99.90;;;;;;5011077;28;20231;-75
2022/04/25 04:17:33;;;;;;;17.65;10.70;;;8.10;99.90;;;;;;5010491;28;20025;-75
2022/04/25 04:19:58;;;;;;;19.55;11.32;;;8.00;99.90;;;;;;5011115;28;20030;-76
2022/04/25 04:22:25;;;;;;;18.15;10.77;;;8.00;99.90;;;;;;5010878;28;20034;-75
2022/04/25 04:24:51;;;;;;;21.20;11.60;;;8.00;99.90;;;;;;5010870;28;20243;-75
2022/04/25 04:27:17;;;;;;;22.75;11.25;;;8.00;99.90;;;;;;5010071;28;20460;-75
2022/04/25 04:29:44;;;;;;;16.70;10.32;;;8.00;99.90;;;;;;5010218;28;20062;-75
2022/04/25 04:32:09;;;;;;;19.63;11.52;;;8.10;99.90;;;;;;5011036;28;20030;-75
2022/04/25 04:34:36;;;;;;;19.55;11.32;;;8.10;99.90;;;;;;5010931;28;20018;-76
2022/04/25 04:37:02;;;;;;;17.40;10.23;;;7.90;99.90;;;;;;5009837;28;20030;-76
2022/04/25 04:39:28;;;;;;;19.63;11.15;;;8.00;99.90;;;;;;5010621;28;20034;-76
2022/04/25 04:41:53;;;;;;;18.83;10.98;;;8.00;99.90;;;;;;5011124;28;20026;-75
2022/04/25 04:44:19;;;;;;;25.63;11.02;;;7.90;99.90;;;;;;5010564;28;20076;-75
2022/04/25 04:46:44;;;;;;;17.73;10.70;;;8.00;99.90;;;;;;5008599;28;20552;-75
2022/04/25 04:49:10;;;;;;;19.00;10.48;;;8.10;99.90;;;;;;5012942;28;20029;-76
2022/04/25 04:51:35;;;;;;;19.05;10.48;;;8.10;99.90;;;;;;5008980;28;20501;-76
2022/04/25 04:54:02;;;;;;;18.90;9.95;;;8.20;99.90;;;;;;5010930;28;20091;-76
2022/04/25 04:56:29;;;;;;;19.50;10.10;;;8.10;99.90;;;;;;5030515;28;20102;-76
2022/04/25 04:58:55;;;;;;;15.23;9.23;;;8.20;99.90;;;;;;5015079;28;20065;-76
2022/04/25 05:01:20;;;;;;;18.77;9.85;;;8.30;99.90;;;;;;5010522;28;20053;-76
2022/04/25 05:03:46;;;;;;;18.40;9.13;;;8.40;99.90;;;;;;5015438;28;20061;-76
2022/04/25 05:06:12;;;;;;;18.75;9.50;;;8.50;99.90;;;;;;5015016;28;20057;-76
2022/04/25 05:08:38;;;;;;;18.58;9.30;;;8.60;99.90;;;;;;5021053;28;20231;-75
2022/04/25 05:11:05;;;;;;;18.27;9.00;;;8.60;99.90;;;;;;5009381;28;20145;-76
2022/04/25 05:13:31;;;;;;;17.48;8.52;;;8.50;99.90;;;;;;5010329;28;20038;-75
2022/04/25 05:15:57;;;;;;;18.45;8.45;;;8.60;99.90;;;;;;5004016;28;20037;-76
2022/04/25 05:18:23;;;;;;;16.08;8.90;;;8.50;99.90;;;;;;5008973;28;20034;-76
2022/04/25 05:20:48;;;;;;;13.52;9.15;;;8.60;99.90;;;;;;5009947;28;20033;-76
2022/04/25 05:23:14;;;;;;;19.15;8.98;;;8.50;99.90;;;;;;5009919;28;20136;-75
2022/04/25 05:25:40;;;;;;;18.17;8.13;;;8.50;99.90;;;;;;5010031;28;20030;-76
2022/04/25 05:28:05;;;;;;;12.82;7.90;;;8.60;99.90;;;;;;5009653;28;20025;-76
2022/04/25 05:30:32;;;;;;;13.45;8.35;;;8.80;99.90;;;;;;5008364;28;20033;-76
2022/04/25 05:33:02;;;;;;;14.05;7.72;;;8.80;99.90;;;;;;5009990;28;20155;-76
2022/04/25 05:35:29;;;;;;;16.65;8.00;;;8.80;99.90;;;;;;5009552;28;20041;-76
2022/04/25 05:37:56;;;;;;;10.73;6.78;;;8.90;99.90;;;;;;5009961;28;20119;-76
2022/04/25 05:40:22;;;;;;;13.98;7.68;;;8.90;99.90;;;;;;5009559;28;20043;-76
2022/04/25 05:42:50;;;;;;;10.95;7.28;;;9.00;99.90;;;;;;5010032;28;20038;-77
2022/04/25 05:45:18;;;;;;;19.13;8.13;;;9.00;99.90;;;;;;5008332;28;20029;-76
2022/04/25 05:47:43;;;;;;;11.57;6.75;;;9.00;99.90;;;;;;5008608;28;20058;-76
2022/04/25 05:52:56;;;;;;;11.07;6.43;;;9.00;99.90;;;;;;5005609;28;20055;-76
2022/04/25 05:55:22;;;;;;;10.20;5.93;;;9.10;99.90;;;;;;5010056;28;20489;-86
2022/04/25 05:57:47;;;;;;;10.02;5.75;;;9.20;99.90;;;;;;5011925;28;20044;-84
2022/04/25 06:00:14;;;;;;;13.43;6.10;;;9.30;99.90;;;;;;5009488;28;20042;-83
2022/04/25 06:02:41;;;;;;;10.95;5.68;;;9.40;99.90;;;;;;5008644;28;20026;-82
2022/04/25 06:05:09;;;;;;;8.80;5.75;;;9.40;99.90;;;;;;5009850;28;20025;-84
2022/04/25 06:07:35;;;;;;;11.20;5.90;;;9.40;99.90;;;;;;5014328;28;20022;-87
2022/04/25 06:10:01;;;;;;;8.07;5.65;;;9.50;99.90;;;;;;5013383;28;20034;-88
2022/04/25 06:12:27;;;;;;;10.05;5.78;;;9.50;99.90;;;;;;5018762;28;20112;-88
2022/04/25 06:14:53;;;;;;;12.40;5.55;;;9.50;99.90;;;;;;5002856;28;20481;-87
2022/04/25 06:17:19;;;;;;;10.45;5.47;;;9.60;99.90;;;;;;5005022;28;20037;-88
2022/04/25 06:19:44;;;;;;;9.20;5.57;;;9.70;99.90;;;;;;5007162;28;20490;-88
2022/04/25 06:22:10;;;;;;;8.48;5.60;;;9.50;99.90;;;;;;5011213;28;20025;-89
2022/04/25 06:24:35;;;;;;;11.68;5.40;;;9.70;99.90;;;;;;5008634;28;20014;-88
2022/04/25 06:27:02;;;;;;;10.90;5.70;;;9.80;99.90;;;;;;5004597;28;20038;-87
2022/04/25 06:29:29;;;;;;;10.25;5.45;;;9.70;99.90;;;;;;5007655;28;20026;-88
2022/04/25 06:31:55;;;;;;;13.05;5.82;;;9.80;99.90;;;;;;5007809;28;20037;-87
2022/04/25 06:34:20;;;;;;;8.60;6.03;;;9.80;99.90;;;;;;5006892;28;20026;-87
2022/04/25 06:36:46;;;;;;;11.15;6.15;;;9.70;99.90;;;;;;5007851;28;20021;-87
2022/04/25 06:39:11;;;;;;;11.32;5.70;;;9.70;99.90;;;;;;5007256;28;20080;-87
2022/04/25 06:41:36;;;;;;;10.57;6.05;;;9.60;99.90;;;;;;5004961;28;20481;-88
2022/04/25 06:44:02;;;;;;;11.13;5.68;;;9.60;99.90;;;;;;5008049;28;20041;-88
2022/04/25 06:46:29;;;;;;;8.77;5.70;;;9.80;99.90;;;;;;5006319;28;21231;-87
2022/04/25 06:51:40;;;;;;;8.48;5.55;;;9.70;99.90;;;;;;5006855;28;20171;-77
2022/04/25 06:54:06;;;;;;;10.23;5.88;;;9.70;99.90;;;;;;5008491;28;20026;-78
2022/04/25 06:56:32;;;;;;;15.18;5.88;;;9.60;99.90;;;;;;5008861;28;20022;-78
2022/04/25 06:58:57;;;;;;;14.00;5.60;;;9.80;99.90;;;;;;5013085;28;20032;-77
2022/04/25 07:01:23;;;;;;;9.38;5.57;;;9.90;99.90;;;;;;5010770;28;20068;-78
2022/04/25 07:03:48;;;;;;;16.17;6.07;;;10.00;99.90;;;;;;5008288;28;20029;-76
2022/04/25 07:06:13;;;;;;;9.60;5.82;;;10.00;99.90;;;;;;5007181;28;20026;-78
2022/04/25 07:08:39;;;;;;;14.65;6.00;;;10.10;99.90;;;;;;5006861;28;20511;-77
2022/04/25 07:11:05;;;;;;;7.78;5.32;;;10.00;99.90;;;;;;5006861;28;20124;-78
2022/04/25 07:13:30;;;;;;;8.52;5.82;;;10.00;99.90;;;;;;5008287;28;20037;-81
2022/04/25 07:15:55;;;;;;;13.02;5.30;;;10.10;99.90;;;;;;5019756;28;20021;-78
2022/04/25 07:18:21;;;;;;;10.70;5.22;;;10.20;99.90;;;;;;5011108;28;20021;-78
2022/04/25 07:20:46;;;;;;;10.38;5.30;;;10.20;99.90;;;;;;5013721;28;20025;-79
2022/04/25 07:28:49;;;;;;;11.85;5.40;;;10.00;99.90;;;;;;5015858;28;20036;-81
2022/04/25 07:31:17;;;;;;;12.07;5.38;;;10.00;99.90;;;;;;5006760;28;20129;-79
2022/04/25 07:33:43;;;;;;;9.90;5.43;;;10.20;99.90;;;;;;5000940;28;20026;-80
2022/04/25 07:36:13;;;;;;;10.68;5.50;;;10.30;99.90;;;;;;5002459;28;20618;-80
2022/04/25 07:38:41;;;;;;;10.88;5.20;;;10.30;99.90;;;;;;5007919;28;20073;-79
2022/04/25 07:41:07;;;;;;;13.20;5.00;;;10.50;99.90;;;;;;5011016;28;20037;-80
2022/04/25 07:43:34;;;;;;;11.65;5.35;;;10.20;99.90;;;;;;5010375;28;20033;-79
2022/04/25 07:46:00;;;;;;;7.13;4.88;;;10.20;99.90;;;;;;5019375;28;20654;-80
2022/04/25 07:48:26;;;;;;;11.57;5.13;;;10.10;99.90;;;;;;5018551;28;20065;-79
2022/04/25 07:50:52;;;;;;;11.10;5.18;;;10.10;99.90;;;;;;5011044;28;20469;-80
2022/04/25 07:53:18;;;;;;;12.13;5.88;;;10.30;99.90;;;;;;5010656;28;20018;-80
2022/04/25 07:55:43;;;;;;;9.07;5.30;;;10.40;99.90;;;;;;5011401;28;20108;-80
2022/04/25 07:58:09;;;;;;;9.77;4.85;;;10.60;99.90;;;;;;5010995;28;20477;-79
2022/04/25 08:00:35;;;;;;;10.90;5.10;;;10.80;99.90;;;;;;5006140;28;20390;-78
2022/04/25 08:03:01;;;;;;;8.07;5.18;;;10.80;99.90;;;;;;5005012;28;20029;-79
2022/04/25 08:05:27;;;;;;;8.88;4.63;;;10.90;99.90;;;;;;5012882;28;20025;-80
2022/04/25 08:07:52;;;;;;;10.63;4.60;;;10.60;99.90;;;;;;5013205;28;20034;-79
2022/04/25 08:10:18;;;;;;;13.23;4.78;;;10.80;99.90;;;;;;5010098;28;20112;-78
2022/04/25 08:18:13;;;;;;;12.60;4.75;;;11.10;99.70;;;;;;5015042;28;20178;-76
2022/04/25 08:20:39;;;;;;;10.02;4.50;;;11.20;99.00;;;;;;5027838;28;20030;-77
2022/04/25 08:23:13;;;;;;;9.98;4.75;;;11.10;98.70;;;;;;5026089;28;20389;-77
2022/04/25 08:25:40;;;;;;;9.93;5.28;;;11.30;99.50;;;;;;5010723;28;20168;-77
2022/04/25 08:28:05;;;;;;;11.65;4.43;;;11.40;99.20;;;;;;5010077;28;20160;-76
2022/04/25 08:30:31;;;;;;;7.18;4.60;;;11.40;98.90;;;;;;5019225;28;20025;-77
2022/04/25 08:32:58;;;;;;;8.02;4.90;;;11.50;98.10;;;;;;5009976;28;20393;-77
2022/04/25 08:35:24;;;;;;;7.35;4.85;;;11.60;98.60;;;;;;5014404;28;20033;-77
2022/04/25 08:37:50;;;;;;;10.63;4.50;;;11.60;98.00;;;;;;5009446;28;20057;-78
2022/04/25 08:40:16;;;;;;;9.20;4.68;;;11.60;97.10;;;;;;5007963;28;20115;-77
2022/04/25 08:42:43;;;;;;;6.07;4.05;;;11.70;96.20;;;;;;5009944;28;20219;-81
2022/04/25 08:45:09;;;;;;;10.10;4.60;;;11.80;96.70;;;;;;5007392;28;20113;-81
2022/04/25 08:47:44;;;;;;;8.95;4.47;;;11.90;96.20;;;;;;5008333;28;20038;-79
2022/04/25 08:50:09;;;;;;;6.07;4.28;;;11.70;96.40;;;;;;5003771;28;20806;-78
2022/04/25 08:52:35;;;;;;;7.00;3.95;;;11.80;96.20;;;;;;5011961;28;20028;-81
2022/04/25 08:55:02;;;;;;;7.30;4.05;;;12.10;95.50;;;;;;5007831;28;20034;-84
2022/04/25 08:57:29;;;;;;;9.80;3.95;;;12.30;94.10;;;;;;5009235;28;20457;-83
2022/04/25 08:59:56;;;;;;;6.63;3.90;;;12.50;93.70;;;;;;5008447;28;20451;-83
2022/04/25 09:02:22;;;;;;;6.72;3.85;;;12.70;93.00;;;;;;5006817;28;20032;-83
2022/04/25 09:04:49;;;;;;;6.70;3.92;;;12.80;93.10;;;;;;5009360;28;20389;-82
2022/04/25 09:07:16;;;;;;;8.55;3.70;;;12.90;92.20;;;;;;4999450;28;20486;-81
2022/04/25 09:09:42;;;;;;;6.50;3.70;;;12.80;92.60;;;;;;5024033;28;20034;-82
2022/04/25 09:12:11;;;;;;;7.82;3.88;;;13.20;91.90;;;;;;5006857;28;20038;-81
2022/04/25 09:14:40;;;;;;;6.45;3.90;;;13.20;92.40;;;;;;5006521;28;20544;-82
2022/04/25 09:17:06;;;;;;;5.70;3.40;;;13.40;90.30;;;;;;4991019;28;20041;-83
2022/04/25 09:19:33;;;;;;;6.57;3.80;;;13.60;89.40;;;;;;5010004;28;20532;-83
2022/04/25 09:21:59;;;;;;;8.07;3.55;;;13.60;88.70;;;;;;5004574;28;20080;-80
2022/04/25 09:24:30;;;;;;;7.22;3.70;;;13.70;88.50;;;;;;5006877;28;20500;-80
2022/04/25 09:27:08;;;;;;;7.23;4.17;;;13.60;88.40;;;;;;4999388;28;20033;-81
2022/04/25 09:29:35;;;;;;;6.22;3.75;;;13.40;88.30;;;;;;5006901;28;20484;-80
2022/04/25 09:32:02;;;;;;;8.30;3.78;;;13.30;90.00;;;;;;5008941;28;20041;-80
2022/04/25 09:37:16;;;;;;;7.00;3.38;;;13.20;90.00;;;;;;5009254;28;20041;-81
2022/04/25 09:39:42;;;;;;;7.88;3.70;;;13.20;90.50;;;;;;5007368;28;20405;-81
2022/04/25 09:42:09;;;;;;;4.82;3.53;;;13.40;90.00;;;;;;5004936;28;20496;-80
2022/04/25 09:44:53;;;;;;;7.38;3.22;;;13.70;89.30;;;;;;5017058;28;20034;-81
2022/04/25 09:47:32;;;;;;;7.53;3.80;;;14.10;87.10;;;;;;5008623;28;20033;-81
2022/04/25 09:50:10;;;;;;;5.55;3.33;;;14.30;85.40;;;;;;5003836;28;20040;-81
2022/04/25 09:53:05;;;;;;;7.70;3.55;;;14.40;84.00;;;;;;5009209;28;20113;-80
2022/04/25 09:55:34;;;;;;;5.35;3.38;;;14.30;83.30;;;;;;5003548;28;20567;-80
2022/04/25 09:58:12;;;;;;;8.32;3.78;;;14.10;84.30;;;;;;5007834;28;20041;-80
2022/04/25 10:00:38;;;;;;;10.27;3.38;;;14.20;84.70;;;;;;5009064;28;20036;-80
2022/04/25 10:03:05;;;;;;;9.02;3.63;;;14.20;84.60;;;;;;5029205;28;20042;-80
2022/04/25 10:05:48;;;;;;;6.57;3.20;;;14.10;81.60;;;;;;5019094;28;20046;-80
2022/04/25 10:08:16;;;;;;;8.27;3.60;;;14.20;86.30;;;;;;5009695;28;20022;-80
2022/04/25 10:10:57;;;;;;;5.80;3.38;;;14.60;84.90;;;;;;5007495;28;20499;-81
2022/04/25 10:13:24;;;;;;;4.78;3.20;;;14.60;83.00;;;;;;5005047;28;20034;-80
2022/04/25 10:15:50;;;;;;;3.83;2.92;;;14.80;81.70;;;;;;5008562;28;20111;-80
2022/04/25 10:18:16;;;;;;;6.10;3.58;;;14.90;83.40;;;;;;5008979;28;20477;-80
2022/04/25 10:20:44;;;;;;;5.43;2.90;;;15.00;79.10;;;;;;5014548;28;20030;-80
2022/04/25 10:23:11;;;;;;;6.45;3.33;;;15.10;79.40;;;;;;5007650;28;20048;-81
2022/04/25 10:25:38;;;;;;;10.93;3.67;;;15.10;79.70;;;;;;5012135;28;20481;-80
2022/04/25 10:28:13;;;;;;;5.82;3.17;;;14.90;81.20;;;;;;5009163;28;20049;-81
2022/04/25 10:30:43;;;;;;;9.38;3.33;;;15.20;79.10;;;;;;5010785;28;20501;-80
2022/04/25 10:33:20;;;;;;;8.27;3.40;;;15.30;77.60;;;;;;5014699;28;20488;-80
2022/04/25 10:35:48;;;;;;;5.20;3.03;;;15.50;77.40;;;;;;5003527;28;20034;-80
2022/04/25 10:38:49;;;;;;;5.65;2.88;;;15.50;77.60;;;;;;5016753;28;20060;-81
2022/04/25 10:44:31;;;;;;;6.25;3.00;;;15.60;75.80;;;;;;5013942;28;20048;-80
2022/04/25 10:47:05;;;;;;;5.93;2.80;;;15.50;75.00;;;;;;5003284;28;20033;-80
2022/04/25 10:49:36;;;;;;;6.05;2.92;;;15.60;76.10;;;;;;5008602;28;20034;-80
2022/04/25 10:52:23;;;;;;;4.45;2.58;;;15.40;76.30;;;;;;5006201;28;20037;-81
2022/04/25 10:54:54;;;;;;;4.93;2.72;;;15.30;75.00;;;;;;5005878;28;20026;-79
2022/04/25 10:57:19;;;;;;;6.38;3.35;;;15.10;76.00;;;;;;5006543;28;20036;-80
2022/04/25 10:59:45;;;;;;;5.45;3.03;;;15.00;76.60;;;;;;5005549;28;20113;-80
2022/04/25 11:02:26;;;;;;;7.00;3.28;;;15.00;76.20;;;;;;5003863;28;20034;-80
2022/04/25 11:05:10;;;;;;;5.63;3.07;;;15.20;77.70;;;;;;5006830;28;20068;-79
2022/04/25 11:07:37;;;;;;;5.53;3.22;;;15.40;75.70;;;;;;4999871;28;20022;-78
2022/04/25 11:10:26;;;;;;;5.57;2.97;;;15.50;73.80;;;;;;5006835;28;20498;-79
2022/04/25 11:12:59;;;;;;;4.63;2.95;;;15.60;73.70;;;;;;5017692;28;20138;-79
2022/04/25 11:16:15;;;;;;;5.00;3.20;;;15.90;74.80;;;;;;5012678;28;20038;-80
2022/04/25 11:18:41;;;;;;;5.72;2.88;;;16.20;73.60;;;;;;5015675;28;20140;-79
2022/04/25 11:21:16;;;;;;;6.40;2.70;;;16.40;72.30;;;;;;5010090;28;20109;-80
2022/04/25 11:23:51;;;;;;;5.45;2.95;;;16.50;72.40;;;;;;5011559;28;20030;-79
2022/04/25 11:26:23;;;;;;;7.82;3.20;;;16.90;71.10;;;;;;5013916;28;20117;-79
2022/04/25 11:28:55;;;;;;;4.78;2.92;;;17.00;71.00;;;;;;5011970;28;20381;-80
2022/04/25 11:31:25;;;;;;;6.13;3.13;;;17.00;68.40;;;;;;5014155;28;20084;-79
2022/04/25 11:33:57;;;;;;;8.30;3.15;;;17.00;69.40;;;;;;5010265;28;20447;-80
2022/04/25 11:36:24;;;;;;;4.50;2.97;;;17.20;68.20;;;;;;5016386;28;20040;-79
2022/04/25 11:41:39;;;;;;;3.60;3.10;;;17.80;66.80;;;;;;5009312;28;20033;-79
2022/04/25 11:44:05;;;;;;;5.85;2.90;;;18.00;65.20;;;;;;5009845;28;20038;-79
2022/04/25 11:46:32;;;;;;;4.03;2.78;;;18.30;65.20;;;;;;5011615;28;20037;-79
2022/04/25 11:48:58;;;;;;;5.80;2.80;;;18.60;63.80;;;;;;5011236;28;20507;-79
2022/04/25 11:51:34;;;;;;;6.53;3.20;;;18.90;63.20;;;;;;5008567;28;20029;-79
2022/04/25 11:54:05;;;;;;;3.80;2.47;;;18.60;62.70;;;;;;5008759;28;20111;-79
2022/04/25 11:56:33;;;;;;;6.15;3.10;;;19.20;60.60;;;;;;5010305;28;20045;-79
2022/04/25 11:59:00;;;;;;;5.93;2.90;;;18.70;64.10;;;;;;5010336;28;20034;-79
2022/04/25 12:01:33;;;;;;;4.68;2.90;;;19.00;60.90;;;;;;5019406;28;20022;-79
2022/04/25 12:04:27;;;;;;;4.10;3.22;;;19.60;61.30;;;;;;5010481;28;21332;-79
2022/04/25 12:07:00;;;;;;;4.97;3.13;;;19.80;60.90;;;;;;5013862;28;20033;-78
2022/04/25 12:17:53;;;;;;;5.45;3.13;;;21.10;56.10;;;;;;5008301;28;20044;-80
2022/04/25 12:20:29;;;;;;;7.43;3.03;;;21.50;54.80;;;;;;5017174;28;20022;-79
2022/04/25 12:22:59;;;;;;;5.82;3.17;;;21.60;54.30;;;;;;5009907;28;20038;-80
2022/04/25 12:25:34;;;;;;;5.93;3.10;;;21.60;53.80;;;;;;5021031;28;20064;-79
2022/04/25 12:28:27;;;;;;;6.72;3.45;;;21.80;52.50;;;;;;5015903;28;20055;-80
2022/04/25 12:31:03;;;;;;;6.78;3.40;;;21.80;53.10;;;;;;5023019;28;20103;-81
2022/04/25 12:33:35;;;;;;;4.50;3.20;;;22.10;51.90;;;;;;5024846;28;20025;-80
2022/04/25 12:36:10;;;;;;;6.38;3.42;;;21.90;52.20;;;;;;5007816;28;20037;-80
2022/04/25 12:38:58;;;;;;;5.80;3.22;;;21.60;53.10;;;;;;5017946;28;20025;-80
2022/04/25 12:41:59;;;;;;;6.68;3.72;;;21.80;52.70;;;;;;5007137;28;20095;-80
2022/04/25 12:44:28;;;;;;;6.00;3.22;;;22.20;51.40;;;;;;5008814;28;20037;-80
2022/04/25 12:47:05;;;;;;;5.78;3.28;;;22.30;48.90;;;;;;5014547;28;20030;-80
2022/04/25 12:52:13;;;;;;;4.43;3.55;;;23.30;47.80;;;;;;5337951;23;20074;-73
2022/04/25 12:54:42;;;;;;;7.72;3.60;;;23.50;47.90;;;;;;4926392;29;20047;-72
2022/04/25 12:57:20;;;;;;;9.85;3.72;;;23.50;46.90;;;;;;4933461;29;20515;-73
2022/04/25 12:59:59;;;;;;;5.15;3.42;;;23.00;46.80;;;;;;4917707;29;20039;-74
2022/04/25 13:02:35;;;;;;;7.15;3.70;;;22.20;48.70;;;;;;4931282;29;20429;-74
2022/04/25 13:05:05;;;;;;;8.07;3.47;;;22.30;49.40;;;;;;4928896;29;20494;-73
2022/04/25 13:07:37;;;;;;;5.30;3.50;;;22.60;48.70;;;;;;4913380;29;20049;-72
2022/04/25 13:10:04;;;;;;;;;;;22.70;49.00;;;;;;4931861;29;20067;-73
2022/04/25 13:12:41;;;;;;;7.18;3.60;;;23.20;48.30;;;;;;4931973;29;20253;-73
2022/04/25 13:15:18;;;;;;;7.03;3.10;;;23.00;49.10;;;;;;4931854;29;20032;-73
2022/04/25 13:17:45;;;;;;;6.13;3.38;;;23.80;48.30;;;;;;4930121;29;20028;-73
2022/04/25 13:20:13;;;;;;;7.45;3.30;;;24.50;46.80;;;;;;4920843;29;20036;-73
2022/04/25 13:22:40;;;;;;;4.38;2.75;;;24.90;44.50;;;;;;4928815;29;20443;-72
2022/04/25 13:25:07;;;;;;;5.85;3.70;;;26.00;43.80;;;;;;4929729;29;20123;-72
2022/04/25 13:27:34;;;;;;;5.45;3.00;;;26.50;41.20;;;;;;4930815;29;20035;-74
2022/04/25 13:30:00;;;;;;;6.78;3.53;;;26.20;42.20;;;;;;4931450;29;20043;-73
2022/04/25 13:32:26;;;;;;;4.00;2.67;;;28.00;41.00;;;;;;4931148;29;20561;-73